Overview Statistics Trail Chart Weather Telemetry Raw packets
 

This is the latest recevied weather packets stored in our database for station/object K7CTM. If no packets are shown the sender has not sent any weather packets the latest 10 day(s).

<< 106 107 108 109 110 111 112 >>
Time Temp. Humidity Pressure Rain* Wind** Luminosity Snow
1787812377 18.89° C 57% 1030.8 hPa 0 mm - 0 W/m² -
1787812077 20° C 50% 1030.7 hPa 0 mm - 0 W/m² -
1787811773 19.44° C 53% 1030.7 hPa 0 mm - 0 W/m² -
1787811472 19.44° C 53% 1030.8 hPa 0 mm - 0 W/m² -
1787811168 18.89° C 56% 1031 hPa 0 mm - 0 W/m² -
1787810862 18.89° C 56% 1030.8 hPa 0 mm - 0 W/m² -
1787810558 18.89° C 58% 1030.8 hPa 0 mm - 0 W/m² -
1787810257 18.89° C 59% 1030.8 hPa 0 mm - 0 W/m² -
1787809953 18.89° C 58% 1030.7 hPa 0 mm - 0 W/m² -
1787809652 19.44° C 56% 1030.8 hPa 0 mm - 0 W/m² -
1787809348 18.89° C 55% 1030.6 hPa 0 mm - 0 W/m² -
1787809044 18.89° C 57% 1030.6 hPa 0 mm - 0 W/m² -
1787808740 19.44° C 54% 1030.5 hPa 0 mm - 0 W/m² -
1787808439 20° C 51% 1030.4 hPa 0 mm - 0 W/m² -
1787808138 20° C 51% 1030.6 hPa 0 mm - 0 W/m² -
1787807837 20° C 51% 1030.5 hPa 0 mm - 0 W/m² -
1787807536 20.56° C 49% 1030.4 hPa 0 mm - 0 W/m² -
1787807229 20.56° C 47% 1030.4 hPa 0 mm - 0 W/m² -
1787806923 20.56° C 49% 1030.5 hPa 0 mm - 0 W/m² -
1787806621 20.56° C 49% 1030.6 hPa 0 mm - 0 W/m² -
1787806316 20.56° C 50% 1030.4 hPa 0 mm - 0 W/m² -
1787806016 20.56° C 50% 1030.5 hPa 0 mm - 0 W/m² -
1787805711 20.56° C 49% 1030.4 hPa 0 mm - 0 W/m² -
1787805407 21.67° C 48% 1030.3 hPa 0 mm - 0 W/m² -
1787805102 22.22° C 45% 1030.5 hPa 0 mm - 0 W/m² -

* Rain latest hour (hover to see other rain measurements)
** Current wind speed in m/s (hover to see current wind gust speed)